Alief, Texas
Current Conditions -  °F | °C
As of 5:53 PM on Saturday 25 Oct 2014 (Local Time) from KSGR Reporting Station
Clear Clear  
Wind Chill: 81°   Ceiling: Unl
Heat Index: 81°   Visibility: 10mi
Dew Point: 58°   Wind: 3mph
Humidity: 45%   Direction: 140°SE
Pressure: 30.08"   Gusts: NA
Location:  29.71°N, 95.6°W
Report Text: KSGR 252253Z 14003KT 10SM CLR 27/14 A3008 RMK AO2 SLP188 T02720144
Loading
Personal Weather Stations






























Interactive Weather Map New forecast layout! Learn more

10-Day Weather Forecast

Advertisements
Track Severe Weather on mobile